CUU weather

General Roberto Fierro Villalobos International Airport
Chihuahua, Chihuahua, Mexico

Public forecast

Using degrees Celsius for public forecast. Weather courtesy of forecast.io.

Current aviation weather report (METAR) for General Roberto Fierro Villalobos International Airport

Report is more than 2 hours old.

Retrieved 2019/11/14 05:10 UTC (3 hours ago):

MMCU 140510Z 18004KT 0SM FG VV000 05/05 A3014 RMK 8//// MSGTX MMMY

Aviation forecast (TAF) for General Roberto Fierro Villalobos International Airport

Retrieved 2019/11/14 06:12 UTC (2 hours ago):

TAF MMCU 140605Z 1406/1506 18004KT 1/4SM FG VV001 FM141000 25006KT 3SM BR BKN010 FM141600 34008KT 6SM HZ SCT015 BKN080 FM141900 02008KT P6SM SCT020 SCT080 BECMG 1503/1505 08005KT SCT080 SCT200